Time;durP1;ratioP1;P1;durP2;ratioP2;P2;SDS_P1;SDS_P2;PMS_P1;PMS_P2;Temp;Humidity;BMP_temperature;BMP_pressure;BME280_temperature;BME280_humidity;BME280_pressure;Samples;Min_cycle;Max_cycle;Signal;HPM_P1;HPM_P2
2021/09/21 00:00:10;;;;;;;9.30;4.53;;;10.90;99.90;;;;;;5033888;28;20170;-94
2021/09/21 00:02:37;;;;;;;6.18;4.55;;;10.90;99.90;;;;;;5033595;28;20199;-93
2021/09/21 00:05:05;;;;;;;7.15;4.25;;;10.90;99.90;;;;;;5033511;28;20170;-94
2021/09/21 00:07:39;;;;;;;6.05;4.43;;;10.90;99.90;;;;;;5033432;28;20181;-94
2021/09/21 00:10:15;;;;;;;5.20;4.50;;;10.90;99.90;;;;;;5033347;28;20174;-94
2021/09/21 00:12:42;;;;;;;7.68;4.82;;;10.90;99.90;;;;;;5033384;28;20184;-96
2021/09/21 00:15:24;;;;;;;6.70;4.82;;;10.90;99.90;;;;;;5033741;28;20203;-94
2021/09/21 00:17:53;;;;;;;10.35;4.88;;;11.00;99.90;;;;;;5033281;28;20236;-95
2021/09/21 00:20:23;;;;;;;8.35;5.95;;;11.00;99.90;;;;;;5033546;28;20174;-94
2021/09/21 00:22:53;;;;;;;7.40;5.53;;;11.00;99.90;;;;;;5033515;28;20244;-94
2021/09/21 00:25:19;;;;;;;10.55;6.10;;;11.00;99.90;;;;;;5033397;28;20167;-94
2021/09/21 00:27:46;;;;;;;11.43;6.20;;;11.00;99.90;;;;;;5033306;28;20281;-94
2021/09/21 00:30:25;;;;;;;8.63;5.22;;;10.90;99.90;;;;;;5033547;28;20213;-95
2021/09/21 00:33:03;;;;;;;7.72;5.25;;;11.00;99.90;;;;;;5033212;28;20162;-94
2021/09/21 00:35:31;;;;;;;9.15;5.22;;;10.90;99.90;;;;;;5033183;28;20166;-94
2021/09/21 00:38:00;;;;;;;10.20;5.53;;;10.90;99.90;;;;;;5033217;28;20248;-95
2021/09/21 00:40:34;;;;;;;9.77;4.95;;;10.90;99.90;;;;;;5034153;28;20217;-95
2021/09/21 00:43:04;;;;;;;7.68;5.18;;;11.00;99.90;;;;;;5033823;28;20199;-94
2021/09/21 00:45:46;;;;;;;7.18;5.00;;;11.00;99.90;;;;;;5033849;28;20611;-93
2021/09/21 00:48:15;;;;;;;8.73;5.07;;;11.00;99.90;;;;;;5033325;28;20217;-94
2021/09/21 00:50:42;;;;;;;8.43;5.55;;;11.00;99.90;;;;;;5033677;28;20174;-94
2021/09/21 00:53:17;;;;;;;7.30;5.00;;;11.00;99.90;;;;;;5033557;28;20167;-94
2021/09/21 00:55:45;;;;;;;6.35;4.85;;;11.10;99.90;;;;;;5033632;28;20180;-95
2021/09/21 00:58:16;;;;;;;7.13;4.95;;;11.00;99.90;;;;;;5033613;28;20202;-94
2021/09/21 01:00:42;;;;;;;6.45;4.65;;;11.00;99.90;;;;;;5033165;28;20167;-95
2021/09/21 01:03:08;;;;;;;6.97;5.35;;;11.10;99.90;;;;;;5033545;28;20194;-94
2021/09/21 01:05:36;;;;;;;6.25;4.57;;;11.10;99.90;;;;;;5036395;28;20192;-94
2021/09/21 01:08:16;;;;;;;6.55;4.80;;;11.00;99.90;;;;;;5037294;28;20198;-94
2021/09/21 01:10:53;;;;;;;7.07;4.88;;;11.00;99.90;;;;;;5037114;28;20163;-94
2021/09/21 01:13:29;;;;;;;7.63;4.45;;;11.10;99.90;;;;;;5036684;28;20166;-94
2021/09/21 01:15:57;;;;;;;10.25;4.82;;;11.10;99.90;;;;;;5035915;28;20215;-94
2021/09/21 01:18:26;;;;;;;8.95;5.00;;;11.10;99.90;;;;;;5036376;28;20198;-95
2021/09/21 01:21:12;;;;;;;9.32;5.57;;;11.10;99.90;;;;;;5036692;28;20257;-95
2021/09/21 01:23:52;;;;;;;7.65;4.88;;;11.10;99.90;;;;;;5036347;28;20207;-94
2021/09/21 01:26:23;;;;;;;7.50;4.85;;;11.10;99.90;;;;;;5036816;28;20618;-94
2021/09/21 01:28:56;;;;;;;5.65;4.32;;;11.10;99.90;;;;;;5036423;28;20257;-93
2021/09/21 01:31:22;;;;;;;8.10;4.90;;;11.10;99.90;;;;;;5036113;28;20630;-93
2021/09/21 01:33:51;;;;;;;8.02;5.25;;;11.10;99.90;;;;;;5036248;28;20261;-95
2021/09/21 01:36:22;;;;;;;7.43;5.60;;;11.10;99.90;;;;;;5036142;28;20167;-95
2021/09/21 01:38:49;;;;;;;7.63;4.85;;;11.10;99.90;;;;;;5035897;28;20202;-95
2021/09/21 01:41:38;;;;;;;6.30;4.45;;;11.10;99.90;;;;;;5036416;28;20242;-94
2021/09/21 01:44:04;;;;;;;7.70;5.00;;;11.10;99.90;;;;;;5036102;28;20197;-93
2021/09/21 01:46:36;;;;;;;6.18;4.45;;;11.10;99.90;;;;;;5035941;28;20623;-94
2021/09/21 01:49:04;;;;;;;5.13;4.55;;;11.10;99.90;;;;;;5035974;28;20194;-94
2021/09/21 01:52:21;;;;;;;7.07;4.32;;;11.00;99.90;;;;;;5036030;28;20170;-94
2021/09/21 02:00:14;;;;;;;8.10;4.70;;;11.00;99.90;;;;;;5036917;28;20190;-95
2021/09/21 02:02:44;;;;;;;5.95;4.60;;;11.00;99.90;;;;;;5035647;28;20198;-95
2021/09/21 02:05:11;;;;;;;7.78;4.95;;;11.00;99.90;;;;;;5036131;28;20167;-94
2021/09/21 02:07:37;;;;;;;6.82;4.82;;;11.00;99.90;;;;;;5035445;28;20262;-94
2021/09/21 02:10:09;;;;;;;6.47;5.15;;;11.00;99.90;;;;;;5035547;28;20221;-95
2021/09/21 02:12:36;;;;;;;5.70;4.53;;;11.00;99.90;;;;;;5035661;28;20206;-94
2021/09/21 02:15:02;;;;;;;7.60;4.97;;;10.90;99.90;;;;;;5034664;28;20227;-94
2021/09/21 02:17:29;;;;;;;6.88;5.07;;;10.90;99.90;;;;;;5033954;28;20223;-94
2021/09/21 02:19:55;;;;;;;9.20;4.82;;;10.90;99.90;;;;;;5035449;28;20167;-95
2021/09/21 02:22:43;;;;;;;5.85;4.75;;;10.90;99.90;;;;;;5035313;28;20206;-94
2021/09/21 02:25:11;;;;;;;6.80;4.70;;;10.90;99.90;;;;;;5035124;28;20159;-94
2021/09/21 02:30:26;;;;;;;7.82;4.93;;;11.00;99.90;;;;;;5351763;22;20611;-96
2021/09/21 02:32:52;;;;;;;7.47;4.72;;;10.90;99.90;;;;;;5055470;28;20173;-96
2021/09/21 02:35:18;;;;;;;7.10;5.00;;;10.90;99.90;;;;;;5055012;28;20170;-95
2021/09/21 02:37:45;;;;;;;6.78;4.93;;;10.90;99.90;;;;;;5054893;28;20181;-95
2021/09/21 02:40:11;;;;;;;6.10;4.55;;;10.90;99.90;;;;;;5055887;28;20231;-96
2021/09/21 02:42:37;;;;;;;4.80;4.30;;;10.90;99.90;;;;;;5055060;28;20206;-95
2021/09/21 02:45:05;;;;;;;6.50;4.70;;;10.90;99.90;;;;;;5055383;28;20620;-95
2021/09/21 02:47:31;;;;;;;7.82;4.68;;;10.90;99.90;;;;;;5054982;28;20184;-96
2021/09/21 02:49:56;;;;;;;8.85;5.22;;;10.90;99.90;;;;;;5055237;28;20173;-95
2021/09/21 02:52:22;;;;;;;9.75;5.03;;;10.90;99.90;;;;;;5055216;28;20501;-96
2021/09/21 02:54:48;;;;;;;8.15;5.47;;;10.90;99.90;;;;;;5054683;28;20612;-95
2021/09/21 02:57:13;;;;;;;6.82;4.95;;;10.90;99.90;;;;;;5055168;28;20174;-96
2021/09/21 02:59:39;;;;;;;11.02;5.05;;;10.90;99.90;;;;;;5047508;28;20190;-96
2021/09/21 03:02:05;;;;;;;7.40;4.75;;;10.90;99.90;;;;;;5034373;28;20301;-96
2021/09/21 03:04:35;;;;;;;6.63;4.82;;;10.90;99.90;;;;;;5034547;28;20182;-96
2021/09/21 03:07:14;;;;;;;8.18;4.78;;;10.90;99.90;;;;;;5035175;28;20181;-96
2021/09/21 03:17:26;;;;;;;9.68;5.40;;;10.90;99.90;;;;;;5035488;28;20174;-96
2021/09/21 03:19:53;;;;;;;6.55;5.00;;;10.90;99.90;;;;;;5034894;28;20198;-95
2021/09/21 03:22:19;;;;;;;7.57;4.78;;;10.90;99.90;;;;;;5034439;28;20262;-95
2021/09/21 03:24:44;;;;;;;8.73;5.47;;;10.80;99.90;;;;;;5034862;28;20174;-95
2021/09/21 03:27:10;;;;;;;7.72;4.95;;;10.80;99.90;;;;;;5034176;28;20524;-95
2021/09/21 03:29:36;;;;;;;7.40;5.10;;;10.80;99.90;;;;;;5033562;28;20316;-96
2021/09/21 03:32:02;;;;;;;7.30;5.40;;;10.80;99.90;;;;;;5034254;28;20244;-96
2021/09/21 03:34:28;;;;;;;8.02;4.95;;;10.90;99.90;;;;;;5034564;28;20209;-96
2021/09/21 03:36:54;;;;;;;6.45;5.30;;;10.80;99.90;;;;;;5034929;28;20248;-96
2021/09/21 03:39:20;;;;;;;8.05;4.90;;;10.70;99.90;;;;;;5034332;28;20178;-96
2021/09/21 03:41:46;;;;;;;5.85;4.45;;;10.70;99.90;;;;;;5034499;28;20231;-95
2021/09/21 03:44:12;;;;;;;7.72;5.10;;;10.60;99.90;;;;;;5033840;28;20229;-96
2021/09/21 03:46:37;;;;;;;7.43;5.80;;;10.60;99.90;;;;;;5034247;28;20208;-95
2021/09/21 03:49:03;;;;;;;9.93;5.53;;;10.60;99.90;;;;;;5033863;28;20565;-95
2021/09/21 03:51:29;;;;;;;7.22;5.00;;;10.60;99.90;;;;;;5034031;28;20186;-96
2021/09/21 03:53:55;;;;;;;7.75;5.57;;;10.50;99.90;;;;;;5034489;28;20174;-96
2021/09/21 03:56:21;;;;;;;6.28;4.90;;;10.40;99.90;;;;;;5034179;28;20175;-95
2021/09/21 03:58:46;;;;;;;6.55;4.93;;;10.40;99.90;;;;;;5033603;28;20181;-95
2021/09/21 04:01:12;;;;;;;7.30;5.18;;;10.40;99.90;;;;;;5033759;28;20186;-96
2021/09/21 04:03:38;;;;;;;8.55;5.40;;;10.30;99.90;;;;;;5033762;28;20679;-94
2021/09/21 04:06:04;;;;;;;5.70;5.10;;;10.30;99.90;;;;;;5033824;28;20203;-93
2021/09/21 04:08:30;;;;;;;7.55;5.40;;;10.30;99.90;;;;;;5033796;28;20186;-95
2021/09/21 04:10:55;;;;;;;7.43;5.10;;;10.20;99.90;;;;;;5034063;28;20520;-95
2021/09/21 04:13:21;;;;;;;7.68;5.40;;;10.20;99.90;;;;;;5033747;28;20229;-95
2021/09/21 04:15:47;;;;;;;9.15;5.10;;;10.20;99.90;;;;;;5033699;28;20266;-95
2021/09/21 04:18:12;;;;;;;6.22;5.22;;;10.10;99.90;;;;;;5033808;28;20517;-95
2021/09/21 04:20:38;;;;;;;7.20;5.00;;;10.10;99.90;;;;;;5034004;28;20269;-96
2021/09/21 04:23:04;;;;;;;7.50;5.18;;;10.10;99.90;;;;;;5033669;28;20602;-95
2021/09/21 04:25:31;;;;;;;8.52;5.22;;;10.10;99.90;;;;;;5033689;28;20178;-94
2021/09/21 04:27:58;;;;;;;8.85;5.38;;;10.00;99.90;;;;;;5033772;28;20627;-94
2021/09/21 04:30:24;;;;;;;8.07;4.85;;;10.00;99.90;;;;;;5045416;28;20241;-96
2021/09/21 04:32:51;;;;;;;12.17;5.33;;;10.00;99.90;;;;;;5053569;28;20259;-96
2021/09/21 04:35:17;;;;;;;9.83;5.17;;;10.00;99.90;;;;;;5053455;28;20626;-95
2021/09/21 04:37:43;;;;;;;8.82;4.75;;;10.00;99.90;;;;;;5053160;28;20186;-96
2021/09/21 04:40:09;;;;;;;9.02;5.47;;;10.00;99.90;;;;;;5056370;28;20505;-96
2021/09/21 04:42:35;;;;;;;6.10;5.20;;;10.00;99.90;;;;;;5057139;28;20793;-96
2021/09/21 04:45:01;;;;;;;8.55;5.43;;;9.90;99.90;;;;;;5057295;28;20178;-96
2021/09/21 04:47:27;;;;;;;6.25;4.82;;;9.90;99.90;;;;;;5057308;28;20475;-93
2021/09/21 04:49:53;;;;;;;7.23;4.73;;;9.90;99.90;;;;;;5057208;28;20189;-95
2021/09/21 04:52:20;;;;;;;7.23;5.10;;;9.90;99.90;;;;;;5057447;28;20177;-95
2021/09/21 04:54:46;;;;;;;6.10;4.90;;;9.80;99.90;;;;;;5057393;28;20174;-95
2021/09/21 04:57:12;;;;;;;6.38;5.25;;;9.80;99.90;;;;;;5056946;28;20178;-94
2021/09/21 04:59:38;;;;;;;8.88;4.90;;;9.70;99.90;;;;;;5050579;28;20187;-96
2021/09/21 05:02:04;;;;;;;6.27;4.67;;;9.70;99.90;;;;;;5037405;28;20244;-95
2021/09/21 05:04:29;;;;;;;7.60;5.30;;;9.70;99.90;;;;;;5037101;28;20187;-96
2021/09/21 05:06:55;;;;;;;7.38;5.15;;;9.70;99.90;;;;;;5036857;28;20530;-95
2021/09/21 05:09:21;;;;;;;10.37;5.43;;;9.60;99.90;;;;;;5036765;28;20275;-95
2021/09/21 05:11:47;;;;;;;8.30;5.25;;;9.60;99.90;;;;;;5037030;28;20174;-95
2021/09/21 05:14:14;;;;;;;5.73;4.80;;;9.50;99.90;;;;;;5037463;28;20183;-95
2021/09/21 05:16:40;;;;;;;8.00;5.33;;;9.50;99.90;;;;;;5037197;28;20605;-95
2021/09/21 05:19:11;;;;;;;9.83;5.40;;;9.40;99.90;;;;;;5037155;28;20569;-95
2021/09/21 05:21:38;;;;;;;8.50;5.03;;;9.40;99.90;;;;;;5037448;28;20237;-95
2021/09/21 05:24:05;;;;;;;7.60;5.83;;;9.30;99.90;;;;;;5036709;28;20206;-95
2021/09/21 05:26:31;;;;;;;6.10;5.13;;;9.30;99.90;;;;;;5036602;28;20186;-96
2021/09/21 05:28:56;;;;;;;8.07;5.20;;;9.30;99.90;;;;;;5037007;28;20182;-94
2021/09/21 05:31:22;;;;;;;7.37;5.40;;;9.30;99.90;;;;;;5036626;28;20186;-93
2021/09/21 05:33:48;;;;;;;7.90;5.70;;;9.30;99.90;;;;;;5036810;28;20179;-96
2021/09/21 05:36:13;;;;;;;7.27;5.33;;;9.30;99.90;;;;;;5037300;28;20251;-95
2021/09/21 05:38:39;;;;;;;6.67;5.63;;;9.30;99.90;;;;;;5036299;28;20223;-95
2021/09/21 05:41:05;;;;;;;6.30;5.40;;;9.30;99.90;;;;;;5036271;28;20210;-96
2021/09/21 05:43:32;;;;;;;6.70;5.50;;;9.40;99.90;;;;;;5035831;28;20300;-96
2021/09/21 05:45:57;;;;;;;8.03;5.77;;;9.40;99.90;;;;;;5036608;28;20171;-96
2021/09/21 05:48:23;;;;;;;9.10;5.95;;;9.50;99.90;;;;;;5037040;28;20241;-94
2021/09/21 05:50:49;;;;;;;9.20;6.00;;;9.50;99.90;;;;;;5036636;28;20256;-96
2021/09/21 05:53:15;;;;;;;8.67;5.87;;;9.60;99.90;;;;;;5036686;28;20183;-96
2021/09/21 05:55:40;;;;;;;9.33;6.27;;;9.60;99.90;;;;;;5036050;28;20206;-94
2021/09/21 05:58:06;;;;;;;6.00;5.33;;;9.70;99.90;;;;;;5035794;28;20171;-94
2021/09/21 06:00:32;;;;;;;9.83;6.13;;;9.80;99.90;;;;;;5036170;28;20178;-95
2021/09/21 06:02:58;;;;;;;8.45;6.20;;;9.80;99.90;;;;;;5036057;28;20683;-96
2021/09/21 06:05:24;;;;;;;9.50;6.00;;;9.90;99.90;;;;;;5036074;28;20190;-95
2021/09/21 06:07:51;;;;;;;9.50;5.80;;;9.90;99.90;;;;;;5035822;28;20208;-96
2021/09/21 06:10:19;;;;;;;9.50;6.15;;;10.00;99.90;;;;;;5035920;28;20186;-95
2021/09/21 06:12:45;;;;;;;7.97;5.53;;;10.00;99.90;;;;;;5036260;28;20209;-94
2021/09/21 06:15:13;;;;;;;7.38;5.55;;;10.10;99.90;;;;;;5035963;28;20189;-95
2021/09/21 06:17:38;;;;;;;9.48;5.93;;;10.10;99.90;;;;;;5035723;28;20187;-96
2021/09/21 06:20:06;;;;;;;7.45;6.15;;;10.10;99.90;;;;;;5035538;28;20175;-96
2021/09/21 06:22:32;;;;;;;8.25;5.82;;;10.10;99.90;;;;;;5035583;28;20202;-94
2021/09/21 06:24:58;;;;;;;9.77;6.47;;;10.20;99.90;;;;;;5035789;28;20171;-95
2021/09/21 06:27:24;;;;;;;7.63;6.13;;;10.20;99.90;;;;;;5035152;28;20309;-95
2021/09/21 06:29:50;;;;;;;7.07;5.50;;;10.20;99.90;;;;;;5042966;28;20230;-96
2021/09/21 06:32:15;;;;;;;8.93;5.82;;;10.30;99.90;;;;;;5055866;28;20204;-95
2021/09/21 06:34:41;;;;;;;10.07;6.07;;;10.30;99.90;;;;;;5055263;28;20166;-96
2021/09/21 06:37:07;;;;;;;7.13;5.93;;;10.40;99.90;;;;;;5055248;28;20212;-94
2021/09/21 06:39:32;;;;;;;7.20;5.80;;;10.50;99.90;;;;;;5054715;28;20197;-95
2021/09/21 06:41:58;;;;;;;7.28;5.47;;;10.50;99.90;;;;;;5055325;28;20178;-95
2021/09/21 06:44:24;;;;;;;9.05;6.03;;;10.50;99.90;;;;;;5055315;28;20293;-95
2021/09/21 06:46:49;;;;;;;8.57;5.85;;;10.60;99.90;;;;;;5055033;28;20170;-95
2021/09/21 06:49:15;;;;;;;8.95;6.07;;;10.60;99.90;;;;;;5055054;28;20192;-93
2021/09/21 06:51:41;;;;;;;12.52;5.72;;;10.60;99.90;;;;;;5054674;28;20531;-94
2021/09/21 06:54:06;;;;;;;8.05;5.60;;;10.60;99.90;;;;;;5055206;28;20184;-95
2021/09/21 06:56:32;;;;;;;8.52;6.22;;;10.70;99.90;;;;;;5055255;28;20174;-94
2021/09/21 06:58:58;;;;;;;6.40;4.97;;;10.70;99.90;;;;;;5055068;28;20173;-95
2021/09/21 07:01:25;;;;;;;8.63;6.38;;;10.80;99.90;;;;;;5034419;28;20519;-95
2021/09/21 07:03:51;;;;;;;8.82;5.72;;;10.90;99.90;;;;;;5035212;28;20206;-95
2021/09/21 07:06:17;;;;;;;7.45;6.07;;;10.90;99.90;;;;;;5035133;28;20178;-95
2021/09/21 07:08:42;;;;;;;8.93;5.70;;;10.90;99.90;;;;;;5034690;28;20175;-95
2021/09/21 07:11:10;;;;;;;7.10;5.38;;;11.00;99.90;;;;;;5034949;28;20233;-95
2021/09/21 07:13:36;;;;;;;6.40;4.95;;;11.10;99.90;;;;;;5034794;28;20558;-94
2021/09/21 07:16:03;;;;;;;8.40;5.70;;;11.10;99.90;;;;;;5034494;28;20601;-96
2021/09/21 07:18:29;;;;;;;9.90;5.50;;;11.20;99.90;;;;;;5034659;28;20183;-96
2021/09/21 07:20:54;;;;;;;8.30;5.85;;;11.20;99.90;;;;;;5034823;28;20182;-95
2021/09/21 07:23:20;;;;;;;10.18;6.30;;;11.20;99.90;;;;;;5034377;28;20240;-96
2021/09/21 07:25:46;;;;;;;6.40;5.35;;;11.30;99.90;;;;;;5034724;28;20232;-95
2021/09/21 07:28:12;;;;;;;6.90;5.57;;;11.30;99.90;;;;;;5034309;28;20232;-95
2021/09/21 07:41:04;;;;;;;7.65;5.28;;;11.40;99.90;;;;;;4169470;28;22842;-96
2021/09/21 07:43:29;;;;;;;7.45;5.68;;;11.50;99.90;;;;;;5054039;28;20222;-95
2021/09/21 07:45:55;;;;;;;7.95;5.85;;;11.60;99.90;;;;;;5053695;28;20189;-95
2021/09/21 07:48:21;;;;;;;6.53;5.75;;;11.60;99.90;;;;;;5055152;28;20250;-96
2021/09/21 07:50:48;;;;;;;9.77;5.65;;;11.60;99.90;;;;;;5054262;28;20596;-95
2021/09/21 07:53:14;;;;;;;9.68;6.13;;;11.70;99.90;;;;;;5054389;28;20174;-95
2021/09/21 07:55:40;;;;;;;7.05;5.70;;;11.70;99.90;;;;;;5054086;28;20224;-95
2021/09/21 07:58:06;;;;;;;9.85;6.22;;;11.80;99.90;;;;;;5053874;28;20185;-95
2021/09/21 08:00:33;;;;;;;9.00;6.28;;;11.80;99.90;;;;;;5040165;28;20190;-95
2021/09/21 08:02:58;;;;;;;9.18;6.25;;;11.80;99.90;;;;;;5033891;28;20633;-94
2021/09/21 08:05:24;;;;;;;6.00;5.30;;;11.90;99.90;;;;;;5034191;28;20246;-94
2021/09/21 08:07:50;;;;;;;8.25;6.07;;;12.00;99.90;;;;;;5033757;28;20600;-94
2021/09/21 08:10:16;;;;;;;8.85;5.65;;;12.00;99.90;;;;;;5033723;28;20185;-95
2021/09/21 08:12:43;;;;;;;6.72;5.43;;;12.10;99.90;;;;;;5033674;28;20174;-94
2021/09/21 08:15:10;;;;;;;7.80;5.68;;;12.20;99.90;;;;;;5037632;28;20189;-95
2021/09/21 08:17:36;;;;;;;10.05;5.72;;;12.20;99.90;;;;;;5037210;28;20185;-94
2021/09/21 08:20:04;;;;;;;8.60;6.25;;;12.30;99.90;;;;;;5038153;28;20187;-94
2021/09/21 08:22:30;;;;;;;7.63;5.30;;;12.30;99.90;;;;;;5037985;28;20202;-94
2021/09/21 08:24:56;;;;;;;7.32;5.57;;;12.40;99.90;;;;;;5037875;28;20186;-94
2021/09/21 08:27:23;;;;;;;6.85;5.38;;;12.50;99.90;;;;;;5037651;28;20171;-93
2021/09/21 08:29:50;;;;;;;8.43;5.45;;;12.60;99.90;;;;;;5037570;28;20189;-94
2021/09/21 08:32:15;;;;;;;7.63;5.72;;;12.60;99.90;;;;;;5037666;28;20189;-96
2021/09/21 08:34:41;;;;;;;6.47;5.10;;;12.70;99.90;;;;;;5037798;28;20179;-94
2021/09/21 08:37:07;;;;;;;8.70;6.03;;;12.70;99.90;;;;;;5038051;28;20178;-94
2021/09/21 08:39:33;;;;;;;6.88;5.13;;;12.70;99.90;;;;;;5037272;28;20269;-96
2021/09/21 08:41:59;;;;;;;8.38;5.82;;;12.70;99.90;;;;;;5037357;28;20258;-95
2021/09/21 08:44:25;;;;;;;7.28;5.70;;;12.80;99.90;;;;;;5037406;28;20605;-95
2021/09/21 08:46:52;;;;;;;6.70;5.30;;;12.80;99.90;;;;;;5037449;28;20171;-94
2021/09/21 08:49:18;;;;;;;5.78;4.90;;;12.80;99.90;;;;;;5037140;28;20178;-95
2021/09/21 08:51:44;;;;;;;7.28;5.45;;;12.80;99.90;;;;;;5037556;28;20265;-94
2021/09/21 08:54:10;;;;;;;6.93;5.55;;;12.80;99.90;;;;;;5037338;28;20214;-94
2021/09/21 08:56:36;;;;;;;6.32;5.10;;;12.80;99.90;;;;;;5037121;28;20609;-95
2021/09/21 08:59:10;;;;;;;9.48;5.30;;;12.80;99.90;;;;;;5037971;28;20179;-95
2021/09/21 09:01:48;;;;;;;7.88;4.88;;;12.90;99.90;;;;;;5056877;28;20224;-94
2021/09/21 09:04:17;;;;;;;7.70;5.30;;;12.90;99.90;;;;;;5057221;28;20264;-94
2021/09/21 09:06:42;;;;;;;7.80;5.55;;;13.10;99.90;;;;;;5057081;28;20257;-94
2021/09/21 09:09:17;;;;;;;7.78;5.40;;;13.10;99.90;;;;;;5056585;28;20608;-95
2021/09/21 09:11:46;;;;;;;7.00;5.10;;;13.20;99.90;;;;;;5056906;28;20173;-96
2021/09/21 09:14:36;;;;;;;8.32;5.30;;;13.20;99.90;;;;;;5057071;28;20205;-94
2021/09/21 09:17:04;;;;;;;9.18;5.20;;;13.40;99.90;;;;;;5056849;28;20228;-94
2021/09/21 09:19:42;;;;;;;5.82;4.55;;;13.50;99.90;;;;;;5056001;28;20201;-94
2021/09/21 09:22:14;;;;;;;6.00;4.90;;;13.50;99.90;;;;;;5056807;28;20256;-95
2021/09/21 09:24:52;;;;;;;7.03;4.32;;;13.70;99.90;;;;;;5056649;28;20206;-94
2021/09/21 09:27:34;;;;;;;5.78;4.72;;;13.80;99.90;;;;;;5056813;28;20282;-95
2021/09/21 09:30:04;;;;;;;6.57;4.53;;;13.80;99.90;;;;;;5047567;28;20213;-95
2021/09/21 09:32:30;;;;;;;5.18;4.57;;;13.90;99.90;;;;;;5037403;28;20597;-95
2021/09/21 09:35:00;;;;;;;6.65;5.03;;;13.90;99.90;;;;;;5038094;28;20232;-96
2021/09/21 09:37:37;;;;;;;6.35;5.15;;;13.90;99.90;;;;;;5036007;28;20171;-95
2021/09/21 09:40:03;;;;;;;6.90;4.65;;;14.00;99.90;;;;;;5037678;28;20201;-96
2021/09/21 09:42:33;;;;;;;6.82;5.05;;;14.00;99.90;;;;;;5036131;28;20234;-95
2021/09/21 09:45:02;;;;;;;9.00;5.28;;;14.10;99.90;;;;;;5036164;28;20179;-94
2021/09/21 09:47:27;;;;;;;7.03;5.10;;;14.20;99.90;;;;;;5036305;28;20597;-96
2021/09/21 09:49:55;;;;;;;5.47;4.35;;;14.20;99.90;;;;;;5036329;28;20261;-94
2021/09/21 09:52:22;;;;;;;7.63;4.80;;;14.20;99.90;;;;;;5036181;28;20203;-95
2021/09/21 09:54:48;;;;;;;6.65;4.90;;;14.20;99.90;;;;;;5036352;28;20520;-95
2021/09/21 09:57:15;;;;;;;6.97;4.45;;;14.20;99.90;;;;;;5036087;28;20177;-93
2021/09/21 09:59:41;;;;;;;6.18;4.70;;;14.30;99.90;;;;;;5036595;28;20190;-95
2021/09/21 10:02:08;;;;;;;5.30;4.22;;;14.30;99.90;;;;;;5036036;28;20601;-94
2021/09/21 10:04:34;;;;;;;8.23;4.53;;;14.30;99.90;;;;;;5036281;28;20215;-95
2021/09/21 10:07:00;;;;;;;5.97;4.75;;;14.30;99.90;;;;;;5035795;28;20608;-95
2021/09/21 10:09:26;;;;;;;6.93;4.80;;;14.40;99.90;;;;;;5035843;28;20182;-94
2021/09/21 10:11:56;;;;;;;6.95;4.30;;;14.40;99.90;;;;;;5035912;28;20301;-95
2021/09/21 10:14:25;;;;;;;7.63;3.97;;;14.40;99.90;;;;;;5035892;28;20175;-96
2021/09/21 10:17:02;;;;;;;7.72;4.60;;;14.40;99.90;;;;;;5035587;28;20175;-96
2021/09/21 10:19:29;;;;;;;5.30;4.05;;;14.30;99.90;;;;;;5035625;28;20178;-95
2021/09/21 10:21:56;;;;;;;7.75;4.60;;;14.40;99.90;;;;;;5035479;28;20186;-95
2021/09/21 10:24:39;;;;;;;6.25;4.30;;;14.40;99.90;;;;;;5035298;28;20218;-94
2021/09/21 10:27:08;;;;;;;5.28;3.97;;;14.40;99.90;;;;;;5035363;28;20182;-94
2021/09/21 10:29:34;;;;;;;7.78;4.00;;;14.30;99.90;;;;;;5035513;28;20281;-94
2021/09/21 10:32:00;;;;;;;6.82;3.88;;;14.50;99.90;;;;;;5035305;28;20214;-96
2021/09/21 10:34:26;;;;;;;5.75;3.60;;;14.60;99.90;;;;;;5035351;28;20190;-93
2021/09/21 10:36:59;;;;;;;6.63;4.45;;;14.60;99.90;;;;;;5034438;28;20601;-94
2021/09/21 10:39:25;;;;;;;5.78;4.15;;;14.70;99.90;;;;;;5035382;28;20563;-93
2021/09/21 10:42:03;;;;;;;16.70;4.75;;;14.70;99.90;;;;;;5034941;28;20222;-96
2021/09/21 10:44:31;;;;;;;7.80;4.53;;;14.80;99.90;;;;;;5035243;28;20182;-95
2021/09/21 10:46:59;;;;;;;6.32;4.88;;;14.90;99.90;;;;;;5034959;28;20167;-95
2021/09/21 10:49:40;;;;;;;7.55;4.40;;;14.70;99.90;;;;;;5035078;28;20516;-96
2021/09/21 10:52:09;;;;;;;6.35;4.40;;;14.80;99.90;;;;;;5036390;28;20186;-95
2021/09/21 10:54:38;;;;;;;8.80;4.18;;;14.80;99.90;;;;;;5034901;28;20289;-95
2021/09/21 10:57:10;;;;;;;6.60;3.83;;;14.90;99.90;;;;;;5035732;28;20163;-94
2021/09/21 10:59:41;;;;;;;5.93;4.57;;;14.90;99.90;;;;;;5040635;28;20194;-96
2021/09/21 11:02:10;;;;;;;5.70;4.22;;;15.00;99.90;;;;;;5054908;28;20170;-96
2021/09/21 11:04:43;;;;;;;7.47;4.50;;;14.90;99.90;;;;;;5055166;28;20648;-96
2021/09/21 11:07:14;;;;;;;4.45;3.70;;;14.80;99.90;;;;;;5054835;28;20182;-96
2021/09/21 11:09:40;;;;;;;7.00;4.05;;;14.80;99.90;;;;;;5048390;28;20616;-96
2021/09/21 11:12:08;;;;;;;6.80;4.05;;;14.70;99.90;;;;;;5039702;28;20516;-94
2021/09/21 11:14:42;;;;;;;4.90;4.32;;;14.70;99.90;;;;;;5034476;28;20225;-95
2021/09/21 11:17:09;;;;;;;7.70;3.95;;;14.70;99.90;;;;;;5034509;28;20239;-95
2021/09/21 11:19:36;;;;;;;5.75;4.00;;;14.70;99.90;;;;;;5034465;28;20186;-96
2021/09/21 11:22:06;;;;;;;8.18;5.28;;;14.60;99.90;;;;;;5034964;28;20173;-95
2021/09/21 11:24:33;;;;;;;7.32;5.03;;;14.60;99.90;;;;;;5034257;28;20269;-94
2021/09/21 11:27:06;;;;;;;5.78;3.72;;;14.50;99.90;;;;;;5034848;28;20202;-93
2021/09/21 11:29:34;;;;;;;3.88;3.00;;;14.40;99.90;;;;;;5034161;28;20190;-94
2021/09/21 11:32:00;;;;;;;6.60;3.30;;;14.40;99.90;;;;;;5034352;28;20201;-94
2021/09/21 11:34:29;;;;;;;3.90;2.47;;;14.30;99.90;;;;;;5034588;28;20617;-94
2021/09/21 11:37:02;;;;;;;3.97;2.75;;;14.30;99.90;;;;;;5034500;28;20171;-94
2021/09/21 11:39:31;;;;;;;4.88;3.00;;;14.20;99.90;;;;;;5033735;28;20175;-94
2021/09/21 11:41:57;;;;;;;7.25;2.70;;;14.30;99.90;;;;;;5033790;28;20309;-93
2021/09/21 11:44:42;;;;;;;3.55;2.40;;;14.20;99.90;;;;;;5034109;28;20226;-93
2021/09/21 11:47:08;;;;;;;5.25;2.97;;;14.10;99.90;;;;;;5034386;28;20171;-93
2021/09/21 11:49:33;;;;;;;5.25;2.85;;;13.80;99.90;;;;;;5034125;28;20266;-94
2021/09/21 11:51:59;;;;;;;4.97;2.58;;;13.70;99.90;;;;;;5034177;28;20609;-92
2021/09/21 11:54:25;;;;;;;4.22;2.88;;;13.60;99.90;;;;;;5034145;28;20664;-93
2021/09/21 11:56:54;;;;;;;3.35;2.55;;;13.50;99.90;;;;;;5033509;28;20266;-94
2021/09/21 11:59:20;;;;;;;8.25;4.07;;;13.50;99.90;;;;;;5033738;28;20182;-96
2021/09/21 12:01:51;;;;;;;4.40;2.88;;;13.40;99.90;;;;;;5033667;28;20182;-93
2021/09/21 12:04:18;;;;;;;3.83;2.72;;;13.40;99.90;;;;;;5033674;28;20217;-94
2021/09/21 12:06:46;;;;;;;3.63;2.50;;;13.50;99.90;;;;;;5033862;28;20178;-94
2021/09/21 12:09:13;;;;;;;5.15;2.30;;;13.50;99.90;;;;;;5033670;28;20178;-93
2021/09/21 12:11:43;;;;;;;4.30;2.53;;;13.60;99.90;;;;;;5034776;28;20253;-94
2021/09/21 12:14:09;;;;;;;3.17;2.72;;;13.70;99.90;;;;;;5033624;28;20262;-96
2021/09/21 12:16:35;;;;;;;4.28;3.08;;;13.80;99.90;;;;;;5033795;28;20269;-94
2021/09/21 12:19:01;;;;;;;4.78;3.13;;;14.00;99.90;;;;;;5033075;28;20595;-95
2021/09/21 12:21:29;;;;;;;3.85;2.90;;;14.20;99.90;;;;;;5033938;28;20190;-94
2021/09/21 12:23:55;;;;;;;5.30;3.13;;;14.40;99.90;;;;;;5034605;28;20206;-95
2021/09/21 12:26:22;;;;;;;5.93;3.83;;;14.60;99.90;;;;;;5034991;28;20261;-94
2021/09/21 12:28:53;;;;;;;6.45;4.45;;;14.70;99.90;;;;;;5034008;28;20178;-95
2021/09/21 12:31:30;;;;;;;26.27;8.38;;;14.80;99.90;;;;;;5034009;28;20186;-95
2021/09/21 12:34:05;;;;;;;7.53;5.10;;;14.90;99.90;;;;;;5034548;28;20178;-95
2021/09/21 12:36:41;;;;;;;5.93;4.47;;;14.90;99.90;;;;;;5034475;28;20166;-95
2021/09/21 12:39:16;;;;;;;5.38;4.32;;;15.00;99.90;;;;;;5033735;28;20257;-95
2021/09/21 12:41:45;;;;;;;8.70;4.28;;;15.10;99.90;;;;;;5033845;28;20236;-94
2021/09/21 12:44:14;;;;;;;6.05;3.80;;;15.20;99.90;;;;;;5034865;28;20272;-95
2021/09/21 12:46:42;;;;;;;5.72;3.80;;;15.20;99.90;;;;;;5033321;28;20182;-96
2021/09/21 12:49:10;;;;;;;3.85;2.80;;;15.20;99.90;;;;;;5033638;28;20175;-95
2021/09/21 12:51:43;;;;;;;4.22;3.00;;;15.30;99.90;;;;;;5033788;28;20332;-94
2021/09/21 12:54:14;;;;;;;5.03;2.90;;;15.30;99.90;;;;;;5033198;28;20628;-93
2021/09/21 12:56:45;;;;;;;6.28;2.85;;;15.30;99.90;;;;;;5033466;28;20170;-96
2021/09/21 12:59:14;;;;;;;4.28;2.55;;;15.30;99.90;;;;;;5032951;28;20179;-95
2021/09/21 13:01:41;;;;;;;6.40;2.80;;;15.30;99.90;;;;;;5036924;28;20179;-93
2021/09/21 13:04:08;;;;;;;4.10;2.80;;;15.30;99.90;;;;;;5037758;28;20237;-95
2021/09/21 13:06:35;;;;;;;3.33;2.60;;;15.30;99.90;;;;;;5037162;28;20675;-96
2021/09/21 13:09:02;;;;;;;3.33;2.40;;;15.20;99.90;;;;;;5036796;28;20305;-93
2021/09/21 13:11:28;;;;;;;4.63;2.47;;;15.20;99.90;;;;;;5037251;28;20183;-96
2021/09/21 13:13:53;;;;;;;5.28;2.05;;;15.20;99.90;;;;;;5037507;28;20174;-96
2021/09/21 13:16:19;;;;;;;3.42;2.20;;;15.10;99.90;;;;;;5037031;28;20186;-96
2021/09/21 13:18:47;;;;;;;2.97;2.45;;;15.10;99.90;;;;;;5036847;28;20173;-96